Terminal Aerodrome Forecast
Issued by NWS Tallahassee, FL

Home | Current Version | Previous Version | Text Only | Print | Product List | Glossary On
Versions: 1 2 3 4 5 6 7 8 9 10 11 12 13 14 15
000
FTUS42 KTAE 150500
TAFTLH
TAF
KTLH 150538Z 1506/1606 00000KT P6SM SCT250
     FM151400 17007KT P6SM BKN050 BKN250
     FM151800 18007KT P6SM VCTS BKN050CB BKN250
     FM160000 21004KT P6SM OVC250=

USA.gov is the U.S. government's official web portal to all federal, state and local government web resources and services.